Terminal Aerodrome Forecast
Issued by NWS Detroit/Pontiac, MI

Home | Current Version | Previous Version | Text Only | Print | Product List | Glossary On
Versions: 1 2 3 4 5 6 7 8 9 10 11 12 13 14 15 16 17 18 19 20 21 22 23 24 25 26 27
000
FTUS43 KDTX 260905 AAB
TAFDTW
TAF AMD
KDTW 260905Z 2609/2712 20006KT P6SM BKN050 OVC120
      TEMPO 2609/2611 5SM SHRA OVC025
     FM261200 24008KT 4SM RA BR BKN012 OVC040
     FM261600 25011G20KT P6SM BKN028 OVC080
     FM261700 26015G23KT P6SM BKN040
     FM262000 26016G24KT P6SM SCT050
     FM270000 24013G19KT P6SM SCT060
     FM270800 22010KT P6SM BKN050=

USA.gov is the U.S. government's official web portal to all federal, state and local government web resources and services.